Time;durP1;ratioP1;P1;durP2;ratioP2;P2;SDS_P1;SDS_P2;PMS_P1;PMS_P2;Temp;Humidity;BMP_temperature;BMP_pressure;BME280_temperature;BME280_humidity;BME280_pressure;Samples;Min_cycle;Max_cycle;Signal;HPM_P1;HPM_P2
2021/07/20 00:00:21;;;;;;;19.65;14.63;;;17.70;99.90;;;;;;5081403;28;20473;-83
2021/07/20 00:02:53;;;;;;;23.25;15.68;;;17.70;99.90;;;;;;5093051;28;20020;-83
2021/07/20 00:05:23;;;;;;;20.08;14.77;;;17.60;99.90;;;;;;5091730;28;20111;-83
2021/07/20 00:07:50;;;;;;;27.85;16.10;;;17.60;99.90;;;;;;5091970;28;20111;-82
2021/07/20 00:10:24;;;;;;;22.98;14.57;;;17.60;99.90;;;;;;5092006;28;20039;-82
2021/07/20 00:12:50;;;;;;;25.35;15.95;;;17.50;99.90;;;;;;5084363;28;20150;-82
2021/07/20 00:15:16;;;;;;;20.58;15.32;;;17.50;99.90;;;;;;5075737;28;20095;-83
2021/07/20 00:17:43;;;;;;;23.63;14.95;;;17.40;99.90;;;;;;5077199;28;20035;-83
2021/07/20 00:20:15;;;;;;;27.73;15.35;;;17.40;99.90;;;;;;5071604;28;20021;-83
2021/07/20 00:22:41;;;;;;;22.70;16.23;;;17.40;99.90;;;;;;5072437;28;20478;-82
2021/07/20 00:25:08;;;;;;;22.83;15.38;;;17.40;99.90;;;;;;5072055;28;20131;-82
2021/07/20 00:27:34;;;;;;;21.83;14.77;;;17.40;99.90;;;;;;5071649;28;20111;-82
2021/07/20 00:30:00;;;;;;;21.83;15.07;;;17.50;99.90;;;;;;5071312;28;20511;-82
2021/07/20 00:32:26;;;;;;;20.20;15.65;;;17.50;99.90;;;;;;5071179;28;20063;-82
2021/07/20 00:34:51;;;;;;;23.52;15.55;;;17.50;99.90;;;;;;5071261;28;20060;-83
2021/07/20 00:37:17;;;;;;;21.23;14.23;;;17.50;99.90;;;;;;5071167;28;20032;-83
2021/07/20 00:39:42;;;;;;;27.92;15.68;;;17.40;99.90;;;;;;5074407;28;20491;-83
2021/07/20 00:42:08;;;;;;;21.50;14.50;;;17.40;99.90;;;;;;5072623;28;20028;-83
2021/07/20 00:44:34;;;;;;;23.58;13.27;;;17.30;99.90;;;;;;5079669;28;20031;-83
2021/07/20 00:46:59;;;;;;;20.60;13.77;;;17.20;99.90;;;;;;5091435;28;20034;-84
2021/07/20 00:49:25;;;;;;;23.30;15.00;;;17.20;99.90;;;;;;5091963;28;20114;-83
2021/07/20 00:51:51;;;;;;;19.33;13.48;;;17.10;99.90;;;;;;5095648;28;20450;-83
2021/07/20 00:54:16;;;;;;;17.95;13.50;;;17.00;99.90;;;;;;5094398;28;20028;-83
2021/07/20 00:56:42;;;;;;;23.52;14.35;;;17.00;99.90;;;;;;5096181;28;20036;-83
2021/07/20 00:59:09;;;;;;;26.45;15.07;;;17.00;99.90;;;;;;5095626;28;20035;-82
2021/07/20 01:01:34;;;;;;;20.20;13.40;;;17.00;99.90;;;;;;5094860;28;20032;-83
2021/07/20 01:04:00;;;;;;;25.63;14.15;;;16.90;99.90;;;;;;5095004;28;20470;-83
2021/07/20 01:06:26;;;;;;;22.95;13.95;;;17.00;99.90;;;;;;5094797;28;20020;-83
2021/07/20 01:08:53;;;;;;;22.08;13.13;;;16.90;99.90;;;;;;5094905;28;20121;-83
2021/07/20 01:11:20;;;;;;;21.50;13.00;;;16.90;99.90;;;;;;5081328;28;20024;-82
2021/07/20 01:13:47;;;;;;;23.02;12.50;;;16.90;99.90;;;;;;5076080;28;20386;-83
2021/07/20 01:16:14;;;;;;;24.65;13.00;;;16.90;99.90;;;;;;5075699;28;20043;-83
2021/07/20 01:18:40;;;;;;;23.05;14.00;;;16.90;99.90;;;;;;5075718;28;20477;-83
2021/07/20 01:21:09;;;;;;;24.33;14.40;;;16.90;99.90;;;;;;5081488;28;20385;-83
2021/07/20 01:23:43;;;;;;;24.80;14.35;;;16.90;99.90;;;;;;5094591;28;20399;-83
2021/07/20 01:26:09;;;;;;;23.05;14.55;;;16.90;99.90;;;;;;5085147;28;20033;-83
2021/07/20 01:28:36;;;;;;;19.85;13.00;;;16.90;99.90;;;;;;5075611;28;20135;-83
2021/07/20 01:31:09;;;;;;;20.70;13.70;;;16.90;99.90;;;;;;5075399;28;20062;-83
2021/07/20 01:33:38;;;;;;;19.75;13.40;;;16.90;99.90;;;;;;5073268;28;20398;-83
2021/07/20 01:36:06;;;;;;;21.70;13.38;;;16.90;99.90;;;;;;5082999;28;20035;-83
2021/07/20 01:38:32;;;;;;;18.45;11.82;;;16.90;99.90;;;;;;5094027;28;20028;-83
2021/07/20 01:41:09;;;;;;;22.23;12.73;;;16.90;99.90;;;;;;5084045;28;20028;-83
2021/07/20 01:43:37;;;;;;;16.92;12.27;;;16.80;99.90;;;;;;5075448;28;20062;-83
2021/07/20 01:46:05;;;;;;;20.85;13.23;;;16.80;99.90;;;;;;5080260;28;20028;-83
2021/07/20 01:48:34;;;;;;;25.67;14.05;;;16.80;99.90;;;;;;5090100;28;20021;-83
2021/07/20 01:51:02;;;;;;;22.75;13.32;;;16.80;99.90;;;;;;5083353;28;20367;-82
2021/07/20 01:53:29;;;;;;;21.00;13.90;;;16.70;99.90;;;;;;5078996;28;20020;-83
2021/07/20 01:55:54;;;;;;;22.10;13.55;;;16.80;99.90;;;;;;5073719;28;20081;-83
2021/07/20 01:58:20;;;;;;;20.00;14.55;;;16.70;99.90;;;;;;5079159;28;20111;-83
2021/07/20 02:00:46;;;;;;;20.02;12.93;;;16.70;99.90;;;;;;5082750;28;20537;-83
2021/07/20 02:03:32;;;;;;;22.17;14.63;;;16.70;99.90;;;;;;5092248;28;20031;-83
2021/07/20 02:08:50;;;;;;;23.48;14.13;;;16.60;99.90;;;;;;5075286;28;20040;-83
2021/07/20 02:11:24;;;;;;;19.40;14.35;;;16.60;99.90;;;;;;5073401;28;20387;-83
2021/07/20 02:13:53;;;;;;;23.52;13.00;;;16.60;99.90;;;;;;5073401;28;20020;-83
2021/07/20 02:16:25;;;;;;;20.58;13.15;;;16.60;99.90;;;;;;5072786;28;20090;-83
2021/07/20 02:18:58;;;;;;;20.38;13.20;;;16.70;99.90;;;;;;5073878;28;20029;-83
2021/07/20 02:21:24;;;;;;;20.88;14.75;;;16.60;99.90;;;;;;5073765;28;20031;-83
2021/07/20 02:23:51;;;;;;;25.15;15.00;;;16.60;99.90;;;;;;5093642;28;20078;-84
2021/07/20 02:26:19;;;;;;;21.20;13.05;;;16.50;99.90;;;;;;5090892;28;20051;-83
2021/07/20 02:28:44;;;;;;;23.35;14.07;;;16.50;99.90;;;;;;5093016;28;20072;-83
2021/07/20 02:31:12;;;;;;;21.60;12.98;;;16.60;99.90;;;;;;5093731;28;20024;-84
2021/07/20 02:33:39;;;;;;;19.92;13.40;;;16.60;99.90;;;;;;5093494;28;20048;-84
2021/07/20 02:36:06;;;;;;;23.27;14.20;;;16.60;99.90;;;;;;5084143;28;20028;-84
2021/07/20 02:38:33;;;;;;;20.80;14.32;;;16.60;99.90;;;;;;5093467;28;20111;-82
2021/07/20 02:41:00;;;;;;;21.95;13.63;;;16.50;99.90;;;;;;5085136;28;20389;-84
2021/07/20 02:43:26;;;;;;;20.67;13.93;;;16.40;99.90;;;;;;5085601;28;20060;-83
2021/07/20 02:45:54;;;;;;;24.75;16.00;;;16.40;99.90;;;;;;5093006;28;20074;-83
2021/07/20 02:48:22;;;;;;;20.23;12.75;;;16.50;99.90;;;;;;5093869;28;20024;-83
2021/07/20 02:50:50;;;;;;;19.83;14.32;;;16.50;99.90;;;;;;5094330;28;20028;-83
2021/07/20 02:53:16;;;;;;;19.55;14.82;;;16.50;99.90;;;;;;5083242;28;20029;-83
2021/07/20 02:55:43;;;;;;;22.88;13.27;;;16.50;99.90;;;;;;5072926;28;20024;-83
2021/07/20 02:58:09;;;;;;;23.95;13.98;;;16.50;99.90;;;;;;5073691;28;20032;-83
2021/07/20 03:00:36;;;;;;;22.08;13.50;;;16.40;99.90;;;;;;5073798;28;20028;-83
2021/07/20 03:03:02;;;;;;;20.90;13.80;;;16.40;99.90;;;;;;5072640;28;20025;-83
2021/07/20 03:05:28;;;;;;;21.98;14.52;;;16.30;99.90;;;;;;5080987;28;20429;-82
2021/07/20 03:07:56;;;;;;;18.30;12.43;;;16.30;99.90;;;;;;5073418;28;20028;-83
2021/07/20 03:10:27;;;;;;;18.98;13.32;;;16.40;99.90;;;;;;5072338;28;20024;-83
2021/07/20 03:12:57;;;;;;;20.63;13.73;;;16.40;99.90;;;;;;5076781;28;20023;-83
2021/07/20 03:15:24;;;;;;;23.20;14.57;;;16.30;99.90;;;;;;5081475;28;20089;-83
2021/07/20 03:17:52;;;;;;;19.73;13.48;;;16.40;99.90;;;;;;5090140;28;20036;-83
2021/07/20 03:20:18;;;;;;;18.25;13.43;;;16.40;99.90;;;;;;5086751;28;20016;-83
2021/07/20 03:22:44;;;;;;;21.75;14.50;;;16.30;99.90;;;;;;5079541;28;20020;-83
2021/07/20 03:25:13;;;;;;;20.92;13.93;;;16.30;99.90;;;;;;5092040;28;20037;-83
2021/07/20 03:27:41;;;;;;;21.75;13.93;;;16.30;99.90;;;;;;5090023;28;20422;-83
2021/07/20 03:30:08;;;;;;;22.35;14.15;;;16.30;99.90;;;;;;5084696;28;20081;-83
2021/07/20 03:32:37;;;;;;;24.17;14.13;;;16.30;99.90;;;;;;5092131;28;20032;-83
2021/07/20 03:35:03;;;;;;;19.98;13.30;;;16.30;99.90;;;;;;5091749;28;20020;-83
2021/07/20 03:37:29;;;;;;;22.98;13.38;;;16.20;99.90;;;;;;5092084;28;20051;-83
2021/07/20 03:39:57;;;;;;;22.50;13.20;;;16.20;99.90;;;;;;5091695;28;20024;-83
2021/07/20 03:42:24;;;;;;;25.70;15.90;;;16.30;99.90;;;;;;5093172;28;20381;-84
2021/07/20 03:44:52;;;;;;;27.38;14.20;;;16.30;99.90;;;;;;5093172;28;20031;-84
2021/07/20 03:47:18;;;;;;;21.58;12.88;;;16.20;99.90;;;;;;5093228;28;20024;-84
2021/07/20 03:49:45;;;;;;;19.08;13.00;;;16.20;99.90;;;;;;5092963;28;20032;-83
2021/07/20 03:52:13;;;;;;;22.73;13.43;;;16.20;99.90;;;;;;5091041;28;20480;-83
2021/07/20 03:54:39;;;;;;;20.00;13.05;;;16.20;99.90;;;;;;5073075;28;20111;-83
2021/07/20 03:57:06;;;;;;;22.95;14.32;;;16.20;99.90;;;;;;5072967;28;20036;-83
2021/07/20 03:59:34;;;;;;;16.67;11.98;;;16.20;99.90;;;;;;5073023;28;20017;-84
2021/07/20 04:02:05;;;;;;;23.80;12.98;;;16.30;99.90;;;;;;5071483;28;20021;-84
2021/07/20 04:04:35;;;;;;;18.77;12.98;;;16.30;99.90;;;;;;5072887;28;20391;-84
2021/07/20 04:07:02;;;;;;;19.73;12.52;;;16.20;99.90;;;;;;5072793;28;20040;-83
2021/07/20 04:09:28;;;;;;;22.13;13.35;;;16.20;99.90;;;;;;5071414;28;20016;-83
2021/07/20 04:11:55;;;;;;;19.35;12.30;;;16.10;99.90;;;;;;5072743;28;20406;-83
2021/07/20 04:14:21;;;;;;;21.42;13.55;;;16.20;99.90;;;;;;5072602;28;20017;-83
2021/07/20 04:16:47;;;;;;;18.25;12.18;;;16.10;99.90;;;;;;5072932;28;20029;-83
2021/07/20 04:19:16;;;;;;;17.90;12.93;;;16.20;99.90;;;;;;5073786;28;20363;-83
2021/07/20 04:21:42;;;;;;;25.52;14.35;;;16.20;99.90;;;;;;5077161;28;20032;-83
2021/07/20 04:24:10;;;;;;;20.83;14.82;;;16.20;99.90;;;;;;5088014;28;20035;-84
2021/07/20 04:26:39;;;;;;;21.83;13.15;;;16.10;99.90;;;;;;5094738;28;20036;-83
2021/07/20 04:29:05;;;;;;;24.42;13.45;;;16.10;99.90;;;;;;5096994;28;20026;-83
2021/07/20 04:31:31;;;;;;;22.08;14.05;;;16.10;99.90;;;;;;5096132;28;20385;-83
2021/07/20 04:33:58;;;;;;;25.15;14.43;;;16.00;99.90;;;;;;5095615;28;20082;-83
2021/07/20 04:36:24;;;;;;;20.05;12.60;;;16.10;99.90;;;;;;5095147;28;20066;-83
2021/07/20 04:38:51;;;;;;;22.55;14.00;;;16.10;99.90;;;;;;5095163;28;20024;-83
2021/07/20 04:41:18;;;;;;;23.35;14.10;;;16.00;99.90;;;;;;5095759;28;20020;-83
2021/07/20 04:43:45;;;;;;;22.25;11.98;;;16.00;99.90;;;;;;5094866;28;20480;-84
2021/07/20 04:46:12;;;;;;;20.67;12.63;;;16.00;99.90;;;;;;5082723;28;20019;-83
2021/07/20 04:48:39;;;;;;;20.75;13.27;;;16.00;99.90;;;;;;5082037;28;20032;-83
2021/07/20 04:51:05;;;;;;;20.15;14.23;;;16.00;99.90;;;;;;5077894;28;20119;-84
2021/07/20 04:53:34;;;;;;;22.95;14.10;;;16.10;99.90;;;;;;5080070;28;20024;-84
2021/07/20 04:56:00;;;;;;;22.33;14.13;;;16.00;99.90;;;;;;5082874;28;20085;-84
2021/07/20 04:58:26;;;;;;;21.40;13.85;;;16.00;99.90;;;;;;5094691;28;20032;-83
2021/07/20 05:00:54;;;;;;;26.40;15.77;;;16.00;99.90;;;;;;5081779;28;20461;-83
2021/07/20 05:03:22;;;;;;;22.90;14.27;;;16.10;99.90;;;;;;5074869;28;20032;-83
2021/07/20 05:05:49;;;;;;;27.42;15.93;;;16.10;99.90;;;;;;5087490;28;20020;-83
2021/07/20 05:08:16;;;;;;;30.23;16.55;;;16.10;99.90;;;;;;5094911;28;20111;-83
2021/07/20 05:10:50;;;;;;;29.23;15.13;;;16.20;99.90;;;;;;5085102;28;20075;-83
2021/07/20 05:13:17;;;;;;;21.95;14.68;;;16.40;99.90;;;;;;5094457;28;20503;-83
2021/07/20 05:15:50;;;;;;;24.75;15.70;;;16.40;99.90;;;;;;5089223;28;20021;-84
2021/07/20 05:18:17;;;;;;;23.77;14.15;;;16.50;99.90;;;;;;5075739;28;20082;-83
2021/07/20 05:20:43;;;;;;;22.55;13.20;;;16.50;99.90;;;;;;5084091;28;20021;-84
2021/07/20 05:23:16;;;;;;;21.02;13.52;;;16.50;99.90;;;;;;5088386;28;20106;-83
2021/07/20 05:25:44;;;;;;;22.75;13.95;;;16.60;99.90;;;;;;5075356;28;20023;-83
2021/07/20 05:28:11;;;;;;;19.77;13.18;;;16.60;99.90;;;;;;5074029;28;20052;-83
2021/07/20 05:30:41;;;;;;;20.38;13.35;;;16.60;99.90;;;;;;5088013;28;20028;-83
2021/07/20 05:33:10;;;;;;;22.20;15.10;;;16.70;99.90;;;;;;5095877;28;20032;-82
2021/07/20 05:35:36;;;;;;;23.00;14.82;;;16.70;99.90;;;;;;5085741;28;20025;-83
2021/07/20 05:38:03;;;;;;;23.20;14.60;;;16.70;99.90;;;;;;5079219;28;20032;-82
2021/07/20 05:40:29;;;;;;;21.30;13.93;;;16.70;99.90;;;;;;5094317;28;20048;-83
2021/07/20 05:42:57;;;;;;;20.27;13.32;;;16.70;99.90;;;;;;5083191;28;20100;-83
2021/07/20 05:45:24;;;;;;;27.83;14.45;;;16.70;99.90;;;;;;5083859;28;20065;-83
2021/07/20 05:47:51;;;;;;;20.88;14.50;;;16.60;99.90;;;;;;5085816;28;20118;-83
2021/07/20 05:50:18;;;;;;;21.23;14.07;;;16.60;99.90;;;;;;5091635;28;20081;-83
2021/07/20 05:52:47;;;;;;;21.35;13.20;;;16.70;99.90;;;;;;5094125;28;20370;-83
2021/07/20 05:55:14;;;;;;;22.27;14.57;;;16.80;99.90;;;;;;5094258;28;20144;-84
2021/07/20 05:57:47;;;;;;;22.02;13.98;;;16.80;99.90;;;;;;5084293;28;20082;-84
2021/07/20 06:00:13;;;;;;;;;;;16.80;99.90;;;;;;5076474;28;20482;-83
2021/07/20 06:02:40;;;;;;;25.63;15.57;;;16.80;99.90;;;;;;5070951;28;19908;-83
2021/07/20 06:05:08;;;;;;;20.33;14.18;;;16.90;99.90;;;;;;5073163;28;20114;-83
2021/07/20 06:07:35;;;;;;;26.13;14.45;;;16.90;99.90;;;;;;5082577;28;20049;-83
2021/07/20 06:10:01;;;;;;;27.90;15.70;;;17.00;99.90;;;;;;5069442;28;20036;-82
2021/07/20 06:12:28;;;;;;;29.35;14.50;;;17.00;99.90;;;;;;5067408;28;20149;-82
2021/07/20 06:14:55;;;;;;;22.90;13.85;;;17.10;99.90;;;;;;5067663;28;20227;-83
2021/07/20 06:17:23;;;;;;;26.70;15.02;;;17.10;99.90;;;;;;5066413;28;20078;-82
2021/07/20 06:19:50;;;;;;;21.98;14.77;;;17.10;99.90;;;;;;5070926;28;20058;-83
2021/07/20 06:22:18;;;;;;;23.83;14.85;;;17.10;99.90;;;;;;5075368;28;20043;-83
2021/07/20 06:24:45;;;;;;;25.08;14.68;;;17.10;99.90;;;;;;5072037;28;20033;-83
2021/07/20 06:27:13;;;;;;;23.17;15.00;;;17.10;99.90;;;;;;5090439;28;20020;-83
2021/07/20 06:29:42;;;;;;;23.23;13.68;;;17.20;99.90;;;;;;5090872;28;20040;-83
2021/07/20 06:32:09;;;;;;;23.20;13.45;;;17.10;99.90;;;;;;5091622;28;20473;-83
2021/07/20 06:34:37;;;;;;;21.05;14.45;;;17.10;99.90;;;;;;5091091;28;20047;-83
2021/07/20 06:37:04;;;;;;;21.30;13.27;;;17.00;99.90;;;;;;5074515;28;20516;-83
2021/07/20 06:39:30;;;;;;;25.60;13.57;;;17.10;99.90;;;;;;5070541;28;20029;-83
2021/07/20 06:41:58;;;;;;;24.38;13.85;;;17.10;99.90;;;;;;5070313;28;20025;-83
2021/07/20 06:44:25;;;;;;;19.33;13.75;;;17.20;99.90;;;;;;5070248;28;20460;-83
2021/07/20 06:46:51;;;;;;;26.20;15.38;;;17.30;99.90;;;;;;5070810;28;20047;-83
2021/07/20 06:49:18;;;;;;;22.05;12.82;;;17.30;99.90;;;;;;5070054;28;20041;-83
2021/07/20 06:51:44;;;;;;;23.33;15.68;;;17.30;99.90;;;;;;5092550;28;20016;-83
2021/07/20 06:54:10;;;;;;;22.58;13.50;;;17.40;99.90;;;;;;5088844;28;20044;-83
2021/07/20 06:56:39;;;;;;;25.60;14.23;;;17.40;99.90;;;;;;5072021;28;20381;-83
2021/07/20 06:59:06;;;;;;;22.73;14.27;;;17.50;99.90;;;;;;5070682;28;20021;-83
2021/07/20 07:01:33;;;;;;;26.38;14.52;;;17.60;99.90;;;;;;5073765;28;20469;-83
2021/07/20 07:04:04;;;;;;;19.65;13.65;;;17.70;99.90;;;;;;5088303;28;20070;-83
2021/07/20 07:06:36;;;;;;;22.35;13.88;;;17.70;99.90;;;;;;5071318;28;20024;-84
2021/07/20 07:09:03;;;;;;;24.02;14.55;;;17.70;99.90;;;;;;5069823;28;20123;-82
2021/07/20 07:11:29;;;;;;;23.80;13.98;;;17.80;99.90;;;;;;5068938;28;20009;-82
2021/07/20 07:13:55;;;;;;;20.17;13.00;;;17.90;99.90;;;;;;5071822;28;20036;-82
2021/07/20 07:16:22;;;;;;;22.38;14.63;;;18.00;99.90;;;;;;5086706;28;20024;-82
2021/07/20 07:18:48;;;;;;;22.92;13.27;;;18.00;99.90;;;;;;5092080;28;20047;-82
2021/07/20 07:21:15;;;;;;;26.15;14.10;;;18.00;99.90;;;;;;5075612;28;20356;-82
2021/07/20 07:23:43;;;;;;;21.70;13.48;;;18.00;99.90;;;;;;5072072;28;20021;-82
2021/07/20 07:26:13;;;;;;;22.00;12.93;;;18.10;99.90;;;;;;5071261;28;20040;-82
2021/07/20 07:28:40;;;;;;;21.58;13.65;;;18.10;99.90;;;;;;5076094;28;20149;-82
2021/07/20 07:31:09;;;;;;;23.55;13.10;;;18.10;99.90;;;;;;5088753;28;20024;-82
2021/07/20 07:33:35;;;;;;;20.35;12.10;;;18.30;99.90;;;;;;5071976;28;20029;-82
2021/07/20 07:36:01;;;;;;;19.48;13.43;;;18.30;99.90;;;;;;5073318;28;20112;-82
2021/07/20 07:38:27;;;;;;;23.33;13.95;;;18.40;99.90;;;;;;5078016;28;20024;-82
2021/07/20 07:40:56;;;;;;;25.20;13.02;;;18.40;99.90;;;;;;5075616;28;20040;-82
2021/07/20 07:43:27;;;;;;;22.58;13.85;;;18.60;99.90;;;;;;5092041;28;20085;-82
2021/07/20 07:45:55;;;;;;;21.10;13.32;;;18.70;99.90;;;;;;5092306;28;20069;-82
2021/07/20 07:48:22;;;;;;;25.70;14.05;;;18.70;99.90;;;;;;5092001;28;20062;-82
2021/07/20 07:50:50;;;;;;;23.98;14.65;;;18.80;99.90;;;;;;5093412;28;20020;-82
2021/07/20 07:53:16;;;;;;;20.35;13.60;;;18.80;99.90;;;;;;5093090;28;20039;-82
2021/07/20 07:55:43;;;;;;;17.40;12.15;;;18.90;99.90;;;;;;5092904;28;20030;-81
2021/07/20 07:58:12;;;;;;;21.80;12.50;;;19.00;99.90;;;;;;5093026;28;20036;-82
2021/07/20 08:00:39;;;;;;;20.88;12.30;;;19.20;99.90;;;;;;5091891;28;20016;-82
2021/07/20 08:03:07;;;;;;;18.38;11.25;;;19.20;99.90;;;;;;5090074;28;20020;-82
2021/07/20 08:05:34;;;;;;;19.58;12.57;;;19.20;99.90;;;;;;5075535;28;20201;-82
2021/07/20 08:08:01;;;;;;;19.27;11.48;;;19.30;99.90;;;;;;5073107;28;20032;-82
2021/07/20 08:10:28;;;;;;;18.95;12.05;;;19.30;98.40;;;;;;5072855;28;20039;-82
2021/07/20 08:12:57;;;;;;;16.83;11.38;;;19.20;96.90;;;;;;5072722;28;20021;-82
2021/07/20 08:15:22;;;;;;;21.23;11.95;;;19.40;96.90;;;;;;5084226;28;20027;-82
2021/07/20 08:17:49;;;;;;;21.90;11.45;;;19.30;96.50;;;;;;5091388;28;20036;-81
2021/07/20 08:20:19;;;;;;;17.90;11.80;;;19.30;96.20;;;;;;5092817;28;20031;-82
2021/07/20 08:22:47;;;;;;;21.05;12.45;;;19.40;94.70;;;;;;5091568;28;20496;-82
2021/07/20 08:25:39;;;;;;;19.75;12.05;;;19.40;99.90;;;;;;5092503;28;20030;-82
2021/07/20 08:28:09;;;;;;;20.92;11.98;;;19.40;99.90;;;;;;5089852;28;20036;-82
2021/07/20 08:30:40;;;;;;;19.60;12.50;;;19.30;99.90;;;;;;5072354;28;20116;-82
2021/07/20 08:33:09;;;;;;;20.70;12.20;;;19.20;99.90;;;;;;5071395;28;20024;-81
2021/07/20 08:35:37;;;;;;;18.90;11.90;;;19.30;99.90;;;;;;5071254;28;20021;-81
2021/07/20 08:38:12;;;;;;;20.77;11.38;;;19.40;99.90;;;;;;5072409;28;20040;-82
2021/07/20 08:40:55;;;;;;;20.30;11.90;;;19.40;99.90;;;;;;5072383;28;20033;-82
2021/07/20 08:43:46;;;;;;;20.45;12.20;;;19.30;99.90;;;;;;5071084;28;20020;-82
2021/07/20 08:46:44;;;;;;;18.50;11.13;;;19.30;99.90;;;;;;5090381;28;20036;-82
2021/07/20 08:49:36;;;;;;;18.33;12.05;;;19.30;99.90;;;;;;5091215;28;20024;-81
2021/07/20 08:52:18;;;;;;;20.48;13.77;;;19.20;99.90;;;;;;5091120;28;20039;-82
2021/07/20 08:54:46;;;;;;;18.13;12.18;;;19.20;99.90;;;;;;5091317;28;20069;-81
2021/07/20 08:57:15;;;;;;;17.20;12.10;;;19.20;99.90;;;;;;5092403;28;20036;-82
2021/07/20 08:59:59;;;;;;;22.88;11.55;;;19.20;99.90;;;;;;5084350;28;20021;-81
2021/07/20 09:02:30;;;;;;;25.58;13.15;;;19.20;99.90;;;;;;5072282;28;20028;-82
2021/07/20 09:05:31;;;;;;;19.27;12.82;;;19.30;99.90;;;;;;5079199;28;20027;-82
2021/07/20 09:08:18;;;;;;;19.05;12.50;;;19.30;99.90;;;;;;5094552;28;20031;-82
2021/07/20 09:10:55;;;;;;;17.15;12.23;;;19.30;99.90;;;;;;5094539;28;20032;-82
2021/07/20 09:13:29;;;;;;;22.45;12.38;;;19.20;99.90;;;;;;5095849;28;20016;-82
2021/07/20 09:16:02;;;;;;;20.80;12.20;;;19.30;99.90;;;;;;5092568;28;20024;-82
2021/07/20 09:18:37;;;;;;;19.40;12.57;;;19.30;99.90;;;;;;5094622;28;20036;-82
2021/07/20 09:21:07;;;;;;;24.85;11.88;;;19.40;99.90;;;;;;5094803;28;20031;-82
2021/07/20 09:23:38;;;;;;;18.27;12.00;;;19.50;99.90;;;;;;5094599;28;20028;-82
2021/07/20 09:26:13;;;;;;;16.70;12.07;;;19.50;99.90;;;;;;5094725;28;20107;-82
2021/07/20 09:28:47;;;;;;;19.55;11.85;;;19.50;99.90;;;;;;5094426;28;20040;-82
2021/07/20 09:31:23;;;;;;;18.42;11.68;;;19.60;99.90;;;;;;5093900;28;20393;-82
2021/07/20 09:34:05;;;;;;;15.95;12.35;;;19.70;99.90;;;;;;5095679;28;20028;-82
2021/07/20 09:36:47;;;;;;;18.67;11.23;;;19.80;99.90;;;;;;5093987;28;20031;-82
2021/07/20 09:39:35;;;;;;;19.55;11.35;;;19.80;99.90;;;;;;5094029;28;20036;-82
2021/07/20 09:42:15;;;;;;;18.42;11.98;;;19.90;97.90;;;;;;5094397;28;20024;-82
2021/07/20 09:44:46;;;;;;;20.48;11.90;;;20.00;99.90;;;;;;5088765;28;20055;-82
2021/07/20 09:47:23;;;;;;;15.50;10.73;;;19.90;97.40;;;;;;5082830;28;20024;-82
2021/07/20 09:50:09;;;;;;;17.83;10.73;;;20.00;95.30;;;;;;5074253;28;20020;-82
2021/07/20 09:52:37;;;;;;;14.57;10.82;;;20.20;95.50;;;;;;5075191;28;20112;-82
2021/07/20 09:55:44;;;;;;;16.67;11.10;;;20.30;94.00;;;;;;5073838;28;20024;-82
2021/07/20 09:58:31;;;;;;;15.98;10.75;;;20.60;93.60;;;;;;5084428;28;20051;-82
2021/07/20 10:01:03;;;;;;;25.00;14.73;;;20.60;89.60;;;;;;5073895;28;20029;-82
2021/07/20 10:03:51;;;;;;;18.65;11.48;;;20.60;88.80;;;;;;5074987;28;20028;-80
2021/07/20 10:06:29;;;;;;;21.85;12.68;;;20.90;90.60;;;;;;5074832;28;20029;-80
2021/07/20 10:08:58;;;;;;;18.67;11.50;;;21.10;86.60;;;;;;5074767;28;20024;-79
2021/07/20 10:12:01;;;;;;;16.35;11.55;;;21.10;87.10;;;;;;5074625;28;20024;-80
2021/07/20 10:14:27;;;;;;;16.35;11.00;;;21.10;87.10;;;;;;5078126;28;20028;-80
2021/07/20 10:17:17;;;;;;;15.02;11.93;;;21.20;88.10;;;;;;5092089;28;20042;-80
2021/07/20 10:20:00;;;;;;;18.17;10.55;;;21.20;83.30;;;;;;5094771;28;20066;-80
2021/07/20 10:22:36;;;;;;;18.08;11.10;;;21.10;79.30;;;;;;5093702;28;20412;-80
2021/07/20 10:25:11;;;;;;;21.95;12.05;;;21.10;82.50;;;;;;5093693;28;20024;-80
2021/07/20 10:27:45;;;;;;;21.30;12.32;;;21.10;84.90;;;;;;5093285;28;20016;-80
2021/07/20 10:30:13;;;;;;;21.45;11.23;;;21.10;86.10;;;;;;5074027;28;20051;-80
2021/07/20 10:32:55;;;;;;;15.80;10.35;;;20.90;84.00;;;;;;5074392;28;20044;-80
2021/07/20 10:35:46;;;;;;;17.13;11.18;;;21.00;81.90;;;;;;5076397;28;20388;-80
2021/07/20 10:38:16;;;;;;;24.10;15.70;;;21.20;82.50;;;;;;5094478;28;20528;-79
2021/07/20 10:40:44;;;;;;;20.00;13.65;;;21.20;77.90;;;;;;5078003;28;20478;-80
2021/07/20 10:43:33;;;;;;;22.77;12.18;;;21.30;80.10;;;;;;5072775;28;20073;-80
2021/07/20 10:46:03;;;;;;;15.15;10.90;;;21.40;81.80;;;;;;5076173;28;20020;-80
2021/07/20 10:48:37;;;;;;;19.73;11.38;;;21.60;84.10;;;;;;5081699;28;20048;-79
2021/07/20 10:51:13;;;;;;;19.17;10.80;;;21.70;82.90;;;;;;5094428;28;20020;-79
2021/07/20 10:54:16;;;;;;;13.60;9.30;;;22.10;82.50;;;;;;5092695;28;20056;-80
2021/07/20 10:56:58;;;;;;;15.30;10.27;;;21.80;70.20;;;;;;5093322;28;20031;-80
2021/07/20 10:59:27;;;;;;;;;;;22.00;71.60;;;;;;5094300;28;20057;-80
2021/07/20 11:02:02;;;;;;;11.60;8.10;;;22.10;72.90;;;;;;5088921;28;20392;-80
2021/07/20 11:04:38;;;;;;;12.98;9.13;;;22.30;69.00;;;;;;5093897;28;20028;-80
2021/07/20 11:07:06;;;;;;;14.32;8.32;;;22.20;64.70;;;;;;5092474;28;20031;-80
2021/07/20 11:09:32;;;;;;;15.85;10.40;;;22.50;65.70;;;;;;5091994;28;20016;-80
2021/07/20 11:12:02;;;;;;;11.55;7.63;;;22.80;67.30;;;;;;5092565;28;20031;-80
2021/07/20 11:14:36;;;;;;;10.65;7.30;;;23.00;68.30;;;;;;5089956;28;20101;-80
2021/07/20 11:17:03;;;;;;;19.80;8.23;;;23.30;64.20;;;;;;5073558;28;20470;-80
2021/07/20 11:19:30;;;;;;;14.68;8.88;;;23.40;61.40;;;;;;5071895;28;20473;-80
2021/07/20 11:21:58;;;;;;;12.07;8.02;;;23.60;65.30;;;;;;5073422;28;20028;-80
2021/07/20 11:24:25;;;;;;;11.57;7.07;;;23.60;61.40;;;;;;5071996;28;20027;-80
2021/07/20 11:26:51;;;;;;;9.80;7.70;;;23.50;57.10;;;;;;5076197;28;20025;-80
2021/07/20 11:29:17;;;;;;;12.82;7.93;;;23.70;57.80;;;;;;5081760;28;20085;-80
2021/07/20 11:31:52;;;;;;;16.38;7.97;;;23.90;58.60;;;;;;5082250;28;20009;-80
2021/07/20 11:34:29;;;;;;;13.55;7.82;;;23.60;55.00;;;;;;5082283;28;20093;-80
2021/07/20 11:37:01;;;;;;;10.43;6.78;;;23.50;56.10;;;;;;5083367;28;20074;-80
2021/07/20 11:39:35;;;;;;;7.65;6.38;;;23.40;54.00;;;;;;5082434;28;20016;-80
2021/07/20 11:42:17;;;;;;;12.38;7.90;;;23.00;54.30;;;;;;5080642;28;20032;-80
2021/07/20 11:44:59;;;;;;;9.57;7.43;;;22.80;55.00;;;;;;5081748;28;20025;-80
2021/07/20 11:47:31;;;;;;;9.80;7.22;;;22.80;57.20;;;;;;5082511;28;20027;-79
2021/07/20 11:50:20;;;;;;;10.02;7.07;;;22.60;56.00;;;;;;5079767;28;20115;-80
2021/07/20 11:52:46;;;;;;;8.93;7.75;;;22.80;57.70;;;;;;5088346;28;20028;-80
2021/07/20 11:55:14;;;;;;;9.57;7.30;;;23.00;57.60;;;;;;5071583;28;20024;-80
2021/07/20 11:58:01;;;;;;;9.68;7.25;;;23.20;57.90;;;;;;5072415;28;20032;-80
2021/07/20 12:00:50;;;;;;;9.15;7.15;;;23.20;56.40;;;;;;5071602;28;20025;-80
2021/07/20 12:03:19;;;;;;;11.13;7.60;;;23.40;55.20;;;;;;5087935;28;20116;-80
2021/07/20 12:06:18;;;;;;;12.52;6.78;;;23.70;54.20;;;;;;5084327;28;20020;-80
2021/07/20 12:09:11;;;;;;;10.52;7.63;;;24.00;54.20;;;;;;5072580;28;20112;-80
2021/07/20 12:11:40;;;;;;;13.32;7.75;;;23.80;54.10;;;;;;5071567;28;20043;-80
2021/07/20 12:14:08;;;;;;;15.68;8.43;;;23.90;53.30;;;;;;5071110;28;20020;-80
2021/07/20 12:16:45;;;;;;;9.93;8.07;;;24.00;53.90;;;;;;5074834;28;20028;-80
2021/07/20 12:19:12;;;;;;;10.43;8.15;;;24.30;55.30;;;;;;5075270;28;20044;-80
2021/07/20 12:21:40;;;;;;;11.13;7.30;;;24.30;53.80;;;;;;5081311;28;20035;-80
2021/07/20 12:24:10;;;;;;;15.48;7.40;;;24.30;54.50;;;;;;5071416;28;20029;-80
2021/07/20 12:26:37;;;;;;;10.75;8.13;;;24.10;54.10;;;;;;5080729;28;20016;-79
2021/07/20 12:29:07;;;;;;;11.10;7.68;;;23.50;55.20;;;;;;5080533;28;20397;-80
2021/07/20 12:31:33;;;;;;;11.00;8.23;;;23.20;55.90;;;;;;5079444;28;20032;-80
2021/07/20 12:33:59;;;;;;;13.55;7.82;;;23.00;56.60;;;;;;5080173;28;20036;-80
2021/07/20 12:36:26;;;;;;;15.68;8.65;;;22.80;56.10;;;;;;5077573;28;20036;-80
2021/07/20 12:39:12;;;;;;;12.68;7.90;;;22.60;56.80;;;;;;5080336;28;20028;-80
2021/07/20 12:41:42;;;;;;;13.45;7.95;;;22.50;58.90;;;;;;5083094;28;20031;-80
2021/07/20 12:44:08;;;;;;;11.98;7.30;;;22.50;60.20;;;;;;5076327;28;20103;-80
2021/07/20 12:46:36;;;;;;;10.05;7.93;;;22.50;60.40;;;;;;5083371;28;20095;-80